Time;durP1;ratioP1;P1;durP2;ratioP2;P2;SDS_P1;SDS_P2;PMS_P1;PMS_P2;Temp;Humidity;BMP_temperature;BMP_pressure;BME280_temperature;BME280_humidity;BME280_pressure;Samples;Min_cycle;Max_cycle;Signal;HPM_P1;HPM_P2
2021/06/23 00:00:00;;;;;;;13.40;7.45;;;11.20;96.60;;;;;;5126865;27;20038;-71
2021/06/23 00:02:26;;;;;;;14.52;8.68;;;11.10;96.90;;;;;;5127067;27;20038;-71
2021/06/23 00:04:52;;;;;;;13.77;8.35;;;11.10;97.10;;;;;;5144326;27;20091;-71
2021/06/23 00:07:18;;;;;;;17.23;8.52;;;11.10;96.80;;;;;;5142399;27;20054;-71
2021/06/23 00:09:44;;;;;;;15.63;8.63;;;11.10;96.80;;;;;;5144854;27;20031;-70
2021/06/23 00:12:15;;;;;;;15.45;8.90;;;11.10;96.80;;;;;;5146830;27;20038;-71
2021/06/23 00:14:42;;;;;;;13.73;8.43;;;11.10;97.00;;;;;;5127980;27;20099;-70
2021/06/23 00:17:08;;;;;;;14.90;8.65;;;11.00;97.00;;;;;;5142808;27;20158;-71
2021/06/23 00:19:33;;;;;;;13.85;9.75;;;11.00;96.90;;;;;;5078082;27;20146;-70
2021/06/23 00:21:59;;;;;;;12.13;8.02;;;11.00;96.90;;;;;;5128017;27;20042;-71
2021/06/23 00:24:35;;;;;;;13.45;9.60;;;11.00;97.10;;;;;;5145192;27;20038;-71
2021/06/23 00:27:02;;;;;;;18.92;9.25;;;11.00;97.00;;;;;;5129455;27;20541;-71
2021/06/23 00:29:28;;;;;;;14.52;9.35;;;11.00;97.00;;;;;;5123100;27;20070;-71
2021/06/23 00:31:54;;;;;;;15.25;9.23;;;10.90;97.20;;;;;;5129309;27;20035;-72
2021/06/23 00:34:24;;;;;;;11.20;7.35;;;10.90;97.20;;;;;;5123864;27;20065;-71
2021/06/23 00:36:50;;;;;;;15.73;10.02;;;10.80;97.10;;;;;;5144285;27;20060;-70
2021/06/23 00:39:17;;;;;;;15.88;9.65;;;10.90;97.40;;;;;;5121258;27;20039;-70
2021/06/23 00:41:43;;;;;;;14.35;10.27;;;10.90;97.40;;;;;;5108956;27;20034;-78
2021/06/23 00:44:11;;;;;;;13.52;8.88;;;10.90;97.30;;;;;;5122708;27;20031;-78
2021/06/23 00:46:37;;;;;;;15.38;10.05;;;10.90;97.40;;;;;;5125818;27;20039;-78
2021/06/23 00:49:06;;;;;;;13.93;8.98;;;10.90;97.40;;;;;;5104028;27;20035;-79
2021/06/23 00:51:33;;;;;;;11.27;7.97;;;10.90;97.40;;;;;;5104936;27;20033;-79
2021/06/23 00:54:00;;;;;;;11.00;7.88;;;10.90;97.50;;;;;;5127601;27;20109;-79
2021/06/23 00:56:33;;;;;;;13.48;10.02;;;10.90;97.40;;;;;;5117442;27;20112;-78
2021/06/23 00:59:00;;;;;;;16.40;10.00;;;10.90;97.50;;;;;;5143376;27;20053;-79
2021/06/23 01:01:29;;;;;;;15.20;8.95;;;10.90;97.50;;;;;;5142651;27;20088;-79
2021/06/23 01:03:55;;;;;;;16.40;9.90;;;11.00;97.50;;;;;;5145166;27;20039;-79
2021/06/23 01:06:21;;;;;;;17.95;9.90;;;11.00;97.50;;;;;;5109728;27;20758;-79
2021/06/23 01:08:47;;;;;;;14.50;9.73;;;11.10;97.50;;;;;;5144921;27;20051;-78
2021/06/23 01:11:13;;;;;;;13.90;9.40;;;11.10;97.50;;;;;;5124353;27;20126;-79
2021/06/23 01:14:02;;;;;;;13.65;10.13;;;11.10;97.60;;;;;;5144591;27;20038;-78
2021/06/23 01:16:31;;;;;;;14.60;9.98;;;11.10;97.70;;;;;;5123828;27;20038;-78
2021/06/23 01:18:58;;;;;;;16.05;8.02;;;11.10;97.70;;;;;;5144842;27;20031;-78
2021/06/23 01:21:28;;;;;;;16.52;8.88;;;11.20;97.70;;;;;;5124228;27;20108;-79
2021/06/23 01:23:55;;;;;;;16.67;9.77;;;11.20;97.60;;;;;;5124051;27;20035;-79
2021/06/23 01:26:21;;;;;;;19.50;10.40;;;11.20;97.50;;;;;;5145049;27;20144;-78
2021/06/23 01:28:47;;;;;;;10.23;8.30;;;11.30;97.50;;;;;;5124231;27;20157;-78
2021/06/23 01:31:18;;;;;;;15.93;10.07;;;11.20;97.50;;;;;;5119107;27;20516;-78
2021/06/23 01:33:45;;;;;;;16.75;10.18;;;11.30;97.60;;;;;;5104099;27;20057;-78
2021/06/23 01:36:14;;;;;;;19.60;9.25;;;11.30;97.60;;;;;;5119530;27;20134;-79
2021/06/23 01:38:40;;;;;;;15.85;9.60;;;11.30;97.60;;;;;;5143777;27;20528;-70
2021/06/23 01:41:06;;;;;;;15.05;8.50;;;11.30;97.50;;;;;;5140791;27;20043;-70
2021/06/23 01:43:32;;;;;;;13.82;7.68;;;11.30;97.50;;;;;;5137586;27;20034;-70
2021/06/23 01:45:58;;;;;;;12.77;8.43;;;11.30;97.50;;;;;;5118259;27;20035;-71
2021/06/23 01:48:25;;;;;;;13.07;7.90;;;11.40;97.40;;;;;;5119390;27;20122;-70
2021/06/23 01:50:59;;;;;;;14.27;9.05;;;11.40;97.40;;;;;;5138851;27;20034;-70
2021/06/23 01:53:26;;;;;;;12.98;8.23;;;11.40;97.40;;;;;;5128558;27;20031;-71
2021/06/23 01:55:53;;;;;;;18.05;9.90;;;11.40;97.30;;;;;;5144973;27;20048;-71
2021/06/23 01:58:21;;;;;;;15.20;8.38;;;11.40;97.40;;;;;;5146861;27;20047;-70
2021/06/23 02:01:14;;;;;;;12.38;8.93;;;11.40;97.40;;;;;;5124891;27;20406;-71
2021/06/23 02:03:55;;;;;;;14.57;9.30;;;11.50;97.30;;;;;;5126230;27;20042;-71
2021/06/23 02:06:52;;;;;;;16.40;9.40;;;11.50;97.40;;;;;;5141026;27;20111;-71
2021/06/23 02:09:46;;;;;;;15.52;9.32;;;11.50;97.50;;;;;;5122002;27;20151;-70
2021/06/23 02:12:23;;;;;;;14.32;8.65;;;11.50;97.50;;;;;;5132787;27;20042;-71
2021/06/23 02:15:08;;;;;;;18.23;9.95;;;11.50;97.40;;;;;;5110519;27;20469;-71
2021/06/23 02:17:34;;;;;;;18.83;9.73;;;11.50;97.50;;;;;;5125161;27;20367;-78
2021/06/23 02:20:02;;;;;;;15.07;9.95;;;11.50;97.50;;;;;;5140121;27;20493;-78
2021/06/23 02:22:32;;;;;;;13.40;8.57;;;11.50;97.50;;;;;;5119615;27;20043;-78
2021/06/23 02:25:10;;;;;;;11.70;7.78;;;11.50;97.50;;;;;;5134750;27;20038;-78
2021/06/23 02:27:39;;;;;;;12.88;8.13;;;11.60;97.70;;;;;;5137715;27;20039;-79
2021/06/23 02:30:08;;;;;;;10.60;8.57;;;11.60;97.80;;;;;;5143074;27;20043;-78
2021/06/23 02:32:35;;;;;;;14.25;9.15;;;11.60;97.90;;;;;;5138975;27;20041;-79
2021/06/23 02:35:06;;;;;;;11.77;9.32;;;11.70;98.00;;;;;;5124470;27;20039;-78
2021/06/23 02:37:33;;;;;;;16.60;9.48;;;11.70;98.20;;;;;;5138007;27;20051;-79
2021/06/23 02:39:59;;;;;;;12.10;9.50;;;11.70;98.10;;;;;;5136213;27;20445;-78
2021/06/23 02:42:25;;;;;;;12.55;8.93;;;11.70;98.10;;;;;;5109017;27;20051;-79
2021/06/23 02:44:52;;;;;;;15.88;9.27;;;11.70;98.40;;;;;;5118331;27;20043;-80
2021/06/23 02:47:19;;;;;;;14.73;10.63;;;11.80;98.40;;;;;;5136361;27;20433;-79
2021/06/23 02:49:46;;;;;;;20.92;10.80;;;11.80;98.30;;;;;;5116612;27;20035;-79
2021/06/23 02:52:13;;;;;;;15.43;11.82;;;11.70;98.20;;;;;;5096019;28;20050;-79
2021/06/23 02:54:41;;;;;;;16.50;11.85;;;11.70;98.40;;;;;;5120837;27;20066;-80
2021/06/23 02:57:07;;;;;;;23.40;12.38;;;11.60;98.50;;;;;;5126062;27;20099;-80
2021/06/23 02:59:35;;;;;;;17.27;11.85;;;11.60;98.70;;;;;;5139035;27;20058;-80
2021/06/23 03:02:01;;;;;;;25.08;13.20;;;11.60;98.80;;;;;;5116457;27;20143;-79
2021/06/23 03:04:33;;;;;;;21.05;12.00;;;11.50;99.00;;;;;;5137604;27;20113;-79
2021/06/23 03:07:08;;;;;;;18.25;12.40;;;11.60;99.10;;;;;;5118074;27;20494;-79
2021/06/23 03:09:34;;;;;;;19.58;12.85;;;11.50;99.20;;;;;;5099904;27;20039;-80
2021/06/23 03:12:00;;;;;;;20.25;13.70;;;11.50;99.30;;;;;;5123741;27;20250;-80
2021/06/23 03:14:26;;;;;;;20.92;12.90;;;11.50;99.40;;;;;;5142366;27;20042;-79
2021/06/23 03:16:52;;;;;;;13.82;10.93;;;11.50;99.50;;;;;;5102777;27;20042;-79
2021/06/23 03:19:18;;;;;;;16.42;11.63;;;11.50;99.70;;;;;;5101947;27;20456;-79
2021/06/23 03:21:44;;;;;;;17.63;12.05;;;11.50;99.90;;;;;;5093307;27;20031;-80
2021/06/23 03:24:10;;;;;;;25.42;13.65;;;11.60;99.90;;;;;;5143581;27;20396;-79
2021/06/23 03:26:36;;;;;;;24.67;14.82;;;11.60;99.80;;;;;;5121575;27;20599;-79
2021/06/23 03:29:30;;;;;;;23.00;14.52;;;11.60;99.80;;;;;;5125198;27;20042;-79
2021/06/23 03:31:57;;;;;;;20.00;14.05;;;11.60;99.90;;;;;;5120129;27;20037;-79
2021/06/23 03:34:24;;;;;;;21.13;13.48;;;11.60;99.90;;;;;;5146079;27;20035;-78
2021/06/23 03:36:53;;;;;;;19.45;14.82;;;11.50;99.90;;;;;;5118020;27;20076;-79
2021/06/23 03:39:19;;;;;;;30.00;15.18;;;11.50;99.90;;;;;;5140435;27;20043;-79
2021/06/23 03:41:45;;;;;;;29.27;15.73;;;11.60;99.90;;;;;;5125453;27;20035;-79
2021/06/23 03:44:14;;;;;;;15.88;11.43;;;11.60;99.90;;;;;;5146399;27;20091;-79
2021/06/23 03:46:40;;;;;;;16.63;12.85;;;11.60;99.90;;;;;;5113158;27;20558;-79
2021/06/23 03:49:07;;;;;;;13.30;10.45;;;11.60;99.90;;;;;;5130847;27;20043;-80
2021/06/23 03:51:33;;;;;;;13.95;12.15;;;11.70;99.90;;;;;;5111053;27;20039;-79
2021/06/23 03:53:59;;;;;;;17.73;11.60;;;11.70;99.90;;;;;;5125234;27;20390;-79
2021/06/23 03:56:29;;;;;;;15.13;12.07;;;11.80;99.90;;;;;;5104957;27;20035;-79
2021/06/23 03:58:55;;;;;;;24.52;15.07;;;11.80;99.90;;;;;;5124937;27;20130;-79
2021/06/23 04:01:21;;;;;;;15.75;12.27;;;11.80;99.90;;;;;;5125915;27;20082;-79
2021/06/23 04:03:47;;;;;;;14.30;11.63;;;11.80;99.90;;;;;;5101306;27;20047;-80
2021/06/23 04:06:13;;;;;;;14.40;11.90;;;11.80;99.90;;;;;;5106522;27;20039;-79
2021/06/23 04:08:41;;;;;;;18.30;13.05;;;11.90;99.90;;;;;;5128029;27;20038;-70
2021/06/23 04:11:07;;;;;;;22.63;14.43;;;11.90;99.90;;;;;;5138433;27;20057;-71
2021/06/23 04:13:33;;;;;;;24.88;14.65;;;11.90;99.90;;;;;;5124480;27;20064;-71
2021/06/23 04:16:00;;;;;;;25.10;15.68;;;11.90;99.90;;;;;;5144127;27;20026;-70
2021/06/23 04:18:26;;;;;;;23.13;14.43;;;11.90;99.90;;;;;;5121316;27;20031;-71
2021/06/23 04:20:55;;;;;;;21.45;13.75;;;11.90;99.90;;;;;;5121853;27;20069;-70
2021/06/23 04:23:21;;;;;;;19.02;13.35;;;11.90;99.90;;;;;;5139982;27;20051;-71
2021/06/23 04:25:47;;;;;;;24.38;14.45;;;11.90;99.90;;;;;;5143579;27;20027;-70
2021/06/23 04:28:14;;;;;;;22.08;14.48;;;11.90;99.90;;;;;;5123329;27;20753;-70
2021/06/23 04:30:41;;;;;;;28.42;16.88;;;11.90;99.90;;;;;;5138258;27;20121;-71
2021/06/23 04:33:07;;;;;;;23.20;14.43;;;11.90;99.90;;;;;;5100601;27;20039;-70
2021/06/23 04:35:41;;;;;;;20.33;13.32;;;11.90;99.90;;;;;;5121286;27;20035;-70
2021/06/23 04:38:07;;;;;;;23.95;15.32;;;12.00;99.90;;;;;;5128397;27;20070;-71
2021/06/23 04:40:33;;;;;;;25.25;15.55;;;12.00;99.90;;;;;;5118742;27;20065;-71
2021/06/23 04:42:59;;;;;;;12.93;10.75;;;12.10;99.90;;;;;;5076286;27;20420;-70
2021/06/23 04:45:26;;;;;;;22.30;13.55;;;12.10;99.90;;;;;;5133984;27;20042;-70
2021/06/23 04:47:52;;;;;;;18.48;13.00;;;12.10;99.90;;;;;;5136604;27;20043;-70
2021/06/23 04:50:18;;;;;;;21.08;13.68;;;12.20;99.90;;;;;;5132951;27;20699;-70
2021/06/23 04:52:43;;;;;;;18.45;13.27;;;12.20;99.90;;;;;;5137763;27;20058;-70
2021/06/23 04:55:16;;;;;;;21.95;13.35;;;12.30;99.90;;;;;;5138389;27;20045;-71
2021/06/23 04:57:42;;;;;;;13.88;12.43;;;12.30;99.90;;;;;;5133090;27;20153;-70
2021/06/23 05:00:09;;;;;;;16.10;12.02;;;12.40;99.90;;;;;;5117756;27;20134;-70
2021/06/23 05:02:35;;;;;;;18.83;12.68;;;12.40;99.90;;;;;;5101389;27;20042;-70
2021/06/23 05:05:01;;;;;;;16.33;11.02;;;12.50;99.90;;;;;;5113346;27;20083;-70
2021/06/23 05:07:30;;;;;;;19.85;12.57;;;12.50;99.90;;;;;;5130599;27;20043;-70
2021/06/23 05:09:56;;;;;;;22.67;14.38;;;12.60;99.90;;;;;;5133835;27;20027;-70
2021/06/23 05:12:28;;;;;;;16.15;13.05;;;12.60;99.90;;;;;;5106070;27;20027;-70
2021/06/23 05:14:54;;;;;;;14.50;10.45;;;12.70;99.90;;;;;;5098361;27;20035;-70
2021/06/23 05:17:20;;;;;;;12.95;10.25;;;12.70;99.90;;;;;;5118642;27;20049;-70
2021/06/23 05:19:46;;;;;;;13.93;8.45;;;12.80;99.90;;;;;;5141862;27;20035;-70
2021/06/23 05:22:13;;;;;;;14.30;8.43;;;12.80;99.90;;;;;;5121381;27;20630;-70
2021/06/23 05:24:40;;;;;;;16.80;9.02;;;12.80;99.90;;;;;;5116882;27;20030;-70
2021/06/23 05:27:07;;;;;;;17.02;9.60;;;12.90;99.70;;;;;;5131998;27;20117;-70
2021/06/23 05:29:33;;;;;;;11.40;7.72;;;12.90;99.30;;;;;;5135739;27;20042;-70
2021/06/23 05:31:59;;;;;;;16.75;9.57;;;13.00;99.50;;;;;;5122074;27;20048;-70
2021/06/23 05:34:25;;;;;;;16.08;8.98;;;13.00;99.60;;;;;;5120790;27;20038;-70
2021/06/23 05:36:51;;;;;;;12.27;7.97;;;13.00;99.80;;;;;;5124460;27;20035;-70
2021/06/23 05:39:17;;;;;;;13.73;7.03;;;13.10;99.80;;;;;;5136881;27;20039;-71
2021/06/23 05:41:43;;;;;;;12.15;6.55;;;13.20;99.20;;;;;;5117151;27;20039;-70
2021/06/23 05:44:09;;;;;;;14.90;7.63;;;13.30;98.00;;;;;;5125940;27;20478;-69
2021/06/23 05:46:34;;;;;;;12.20;6.82;;;13.30;98.10;;;;;;5122324;27;20045;-69
2021/06/23 05:49:00;;;;;;;14.18;6.65;;;13.30;98.40;;;;;;5101703;27;20047;-70
2021/06/23 05:51:26;;;;;;;11.52;7.13;;;13.30;97.90;;;;;;5132931;27;20042;-69
2021/06/23 05:53:52;;;;;;;13.68;6.47;;;13.40;98.20;;;;;;5104871;27;20031;-70
2021/06/23 05:56:18;;;;;;;15.10;5.80;;;13.40;98.40;;;;;;5120948;27;20043;-70
2021/06/23 05:58:44;;;;;;;14.35;6.32;;;13.50;98.00;;;;;;5113013;27;20078;-70
2021/06/23 06:01:10;;;;;;;11.07;4.82;;;13.60;97.80;;;;;;5120922;27;20038;-70
2021/06/23 06:03:37;;;;;;;9.68;4.13;;;13.60;97.00;;;;;;5138883;27;20043;-71
2021/06/23 06:06:04;;;;;;;11.30;4.80;;;13.70;96.40;;;;;;5135503;27;20043;-71
2021/06/23 06:08:30;;;;;;;13.77;4.75;;;13.70;96.60;;;;;;5135661;27;20080;-72
2021/06/23 06:10:56;;;;;;;15.65;5.22;;;13.70;97.00;;;;;;5103379;27;20116;-71
2021/06/23 06:13:22;;;;;;;12.02;4.80;;;13.80;96.90;;;;;;5136221;27;20066;-71
2021/06/23 06:15:48;;;;;;;11.90;4.85;;;13.90;95.40;;;;;;5104734;27;20043;-72
2021/06/23 06:18:14;;;;;;;11.13;4.75;;;13.90;95.60;;;;;;5109057;27;20125;-71
2021/06/23 06:20:40;;;;;;;16.08;5.03;;;13.90;95.30;;;;;;5115853;27;20125;-71
2021/06/23 06:23:06;;;;;;;12.85;4.93;;;13.90;95.90;;;;;;5120172;27;20404;-71
2021/06/23 06:25:33;;;;;;;7.57;4.00;;;13.90;95.40;;;;;;5121313;27;20043;-71
2021/06/23 06:27:59;;;;;;;12.57;3.85;;;13.90;94.90;;;;;;5134732;27;20135;-72
2021/06/23 06:30:26;;;;;;;11.80;4.68;;;13.80;95.20;;;;;;5140042;27;20066;-71
2021/06/23 06:32:53;;;;;;;13.60;4.18;;;13.90;94.20;;;;;;5118161;27;20031;-71
2021/06/23 06:35:20;;;;;;;10.25;4.45;;;13.80;94.60;;;;;;5122728;27;20109;-71
2021/06/23 06:37:46;;;;;;;12.73;4.47;;;13.80;95.40;;;;;;5121180;27;20406;-71
2021/06/23 06:40:13;;;;;;;13.07;4.78;;;13.90;95.00;;;;;;5120903;27;20035;-72
2021/06/23 06:42:39;;;;;;;11.18;4.25;;;14.00;95.40;;;;;;5120440;27;20046;-75
2021/06/23 06:45:06;;;;;;;12.35;4.40;;;14.20;95.00;;;;;;5138039;27;20896;-74
2021/06/23 06:47:32;;;;;;;10.35;3.40;;;14.30;95.10;;;;;;5105210;27;20480;-73
2021/06/23 06:49:59;;;;;;;12.48;4.32;;;14.50;95.00;;;;;;5116699;27;20123;-74
2021/06/23 06:52:25;;;;;;;11.30;3.58;;;14.70;95.10;;;;;;5107792;27;20395;-75
2021/06/23 06:54:50;;;;;;;11.65;3.33;;;14.80;94.50;;;;;;5105126;27;20122;-76
2021/06/23 06:57:16;;;;;;;8.40;3.60;;;15.00;93.20;;;;;;5123850;27;20035;-75
2021/06/23 06:59:42;;;;;;;11.45;3.10;;;15.10;92.60;;;;;;5124953;27;20194;-75
2021/06/23 07:02:09;;;;;;;13.18;3.60;;;15.10;92.40;;;;;;5106326;27;20200;-77
2021/06/23 07:04:36;;;;;;;9.45;3.10;;;15.10;92.20;;;;;;5145716;27;20045;-75
2021/06/23 07:07:02;;;;;;;9.52;3.33;;;15.10;92.40;;;;;;5106197;27;20045;-74
2021/06/23 07:09:34;;;;;;;9.38;3.15;;;15.30;92.10;;;;;;5110296;27;20031;-74
2021/06/23 07:12:00;;;;;;;8.70;2.80;;;15.40;92.40;;;;;;5125990;27;20121;-74
2021/06/23 07:14:26;;;;;;;9.65;3.42;;;15.50;92.50;;;;;;5127490;27;20125;-78
2021/06/23 07:16:52;;;;;;;11.15;3.17;;;15.50;91.90;;;;;;5112401;27;20455;-74
2021/06/23 07:19:18;;;;;;;7.13;3.00;;;15.50;91.60;;;;;;5125928;27;20152;-75
2021/06/23 07:21:45;;;;;;;11.23;3.50;;;15.60;92.20;;;;;;5111309;27;20072;-74
2021/06/23 07:24:17;;;;;;;8.95;2.67;;;15.80;92.10;;;;;;5143048;27;20057;-76
2021/06/23 07:26:43;;;;;;;12.82;2.95;;;15.80;91.90;;;;;;5146559;27;20031;-74
2021/06/23 07:29:09;;;;;;;7.47;2.80;;;15.80;91.60;;;;;;5125192;27;20027;-75
2021/06/23 07:36:39;;;;;;;11.07;3.42;;;15.60;90.80;;;;;;5145456;27;20034;-75
2021/06/23 07:39:09;;;;;;;8.63;3.13;;;15.60;90.80;;;;;;5128144;27;20038;-76
2021/06/23 07:41:40;;;;;;;10.33;3.50;;;15.50;90.80;;;;;;5119302;27;20533;-73
2021/06/23 07:44:08;;;;;;;7.03;3.03;;;15.30;91.80;;;;;;5122856;27;20292;-73
2021/06/23 07:46:38;;;;;;;10.82;3.50;;;15.30;91.40;;;;;;5140010;27;20030;-71
2021/06/23 07:49:12;;;;;;;10.27;3.03;;;15.20;91.70;;;;;;5121742;27;20039;-72
2021/06/23 07:52:20;;;;;;;12.07;3.53;;;15.10;92.00;;;;;;5119208;27;20070;-72
2021/06/23 08:08:20;;;;;;;12.05;3.22;;;15.70;89.60;;;;;;5119256;27;20545;-74
2021/06/23 08:10:51;;;;;;;9.10;3.08;;;15.60;90.40;;;;;;5101618;27;20047;-72
2021/06/23 08:13:18;;;;;;;10.02;3.20;;;15.60;91.00;;;;;;5103935;27;20043;-72
2021/06/23 08:15:46;;;;;;;9.85;3.45;;;15.70;90.40;;;;;;5116345;27;20042;-75
2021/06/23 08:18:15;;;;;;;8.70;3.13;;;15.70;90.40;;;;;;5102586;27;20133;-74
2021/06/23 08:20:41;;;;;;;11.65;3.42;;;15.70;90.20;;;;;;5123689;27;20103;-72
2021/06/23 08:23:07;;;;;;;14.13;3.83;;;15.60;91.00;;;;;;5100532;27;20047;-72
2021/06/23 08:25:37;;;;;;;11.55;3.50;;;15.60;90.80;;;;;;5103879;27;20062;-72
2021/06/23 08:28:04;;;;;;;12.15;3.33;;;15.60;91.20;;;;;;5123026;27;20043;-72
2021/06/23 08:30:30;;;;;;;15.50;3.42;;;15.50;91.00;;;;;;5119778;27;20058;-72
2021/06/23 08:32:58;;;;;;;10.20;3.28;;;15.50;91.30;;;;;;5119389;27;20062;-72
2021/06/23 08:35:30;;;;;;;10.18;3.65;;;15.60;91.20;;;;;;5105376;27;20444;-72
2021/06/23 08:37:56;;;;;;;8.07;2.78;;;15.50;91.20;;;;;;5104640;27;20107;-73
2021/06/23 08:40:22;;;;;;;5.78;2.20;;;15.60;91.40;;;;;;5118602;27;20671;-72
2021/06/23 08:42:48;;;;;;;8.43;2.60;;;15.70;91.20;;;;;;5118591;27;20114;-72
2021/06/23 08:45:17;;;;;;;9.48;2.90;;;15.80;90.60;;;;;;5102262;27;20035;-73
2021/06/23 08:47:48;;;;;;;11.68;3.10;;;15.80;90.70;;;;;;5106221;27;20442;-72
2021/06/23 08:50:17;;;;;;;10.48;3.13;;;15.90;90.10;;;;;;5101112;27;20405;-73
2021/06/23 08:52:44;;;;;;;7.38;2.85;;;15.90;89.40;;;;;;5119762;27;20039;-73
2021/06/23 08:55:10;;;;;;;11.40;3.85;;;15.90;90.10;;;;;;5100443;27;20031;-72
2021/06/23 08:57:37;;;;;;;10.02;3.05;;;16.00;90.70;;;;;;5101650;27;20050;-77
2021/06/23 09:00:10;;;;;;;6.43;2.47;;;16.20;86.90;;;;;;5080388;28;20082;-76
2021/06/23 09:02:36;;;;;;;10.15;3.17;;;16.10;88.60;;;;;;5097380;28;20032;-77
2021/06/23 09:05:11;;;;;;;13.43;3.22;;;16.30;86.60;;;;;;5097965;28;20043;-78
2021/06/23 09:07:42;;;;;;;6.82;2.58;;;16.40;87.10;;;;;;5081614;28;20089;-73
2021/06/23 09:10:28;;;;;;;9.80;2.72;;;16.40;88.60;;;;;;5094217;28;20044;-72
2021/06/23 09:13:00;;;;;;;9.52;2.55;;;16.40;89.30;;;;;;5096880;28;20074;-72
2021/06/23 09:15:39;;;;;;;12.30;2.90;;;16.50;89.50;;;;;;5096585;28;20042;-72
2021/06/23 09:18:15;;;;;;;6.82;2.45;;;16.40;86.20;;;;;;5100227;28;20046;-73
2021/06/23 09:20:41;;;;;;;10.05;2.80;;;16.30;87.90;;;;;;5101554;28;20048;-72
2021/06/23 09:23:07;;;;;;;6.32;2.83;;;16.20;87.80;;;;;;5085871;28;20035;-72
2021/06/23 09:25:37;;;;;;;6.30;2.78;;;16.20;87.30;;;;;;5085398;28;20032;-72
2021/06/23 09:28:05;;;;;;;11.40;2.90;;;16.20;87.30;;;;;;5100786;28;20039;-72
2021/06/23 09:30:38;;;;;;;7.53;2.63;;;16.20;87.00;;;;;;5103255;28;20183;-73
2021/06/23 09:33:21;;;;;;;6.90;2.53;;;16.20;86.70;;;;;;5096310;28;20036;-73
2021/06/23 09:35:58;;;;;;;7.38;3.00;;;16.20;87.00;;;;;;5103509;28;20584;-73
2021/06/23 09:38:31;;;;;;;8.43;2.92;;;16.30;87.20;;;;;;5100686;28;20078;-72
2021/06/23 09:40:59;;;;;;;9.02;2.88;;;16.40;88.70;;;;;;5099477;28;20053;-73
2021/06/23 09:43:40;;;;;;;11.60;3.03;;;16.30;87.80;;;;;;5076940;28;20060;-74
2021/06/23 09:46:27;;;;;;;8.55;3.00;;;16.30;87.90;;;;;;5080142;28;20046;-74
2021/06/23 09:49:07;;;;;;;10.02;3.03;;;16.30;88.20;;;;;;5097866;28;20091;-73
2021/06/23 09:51:58;;;;;;;10.88;3.60;;;16.30;86.30;;;;;;5096545;28;20055;-72
2021/06/23 09:54:30;;;;;;;8.75;3.15;;;16.20;86.80;;;;;;5099599;28;20466;-73
2021/06/23 09:57:02;;;;;;;9.85;3.28;;;16.00;88.30;;;;;;5096652;28;20067;-72
2021/06/23 10:02:00;;;;;;;9.60;3.35;;;16.00;88.30;;;;;;5114165;27;20166;-73
2021/06/23 10:04:36;;;;;;;7.18;2.67;;;16.00;88.90;;;;;;5119334;27;20046;-75
2021/06/23 10:07:06;;;;;;;8.43;3.78;;;16.10;87.30;;;;;;5099059;27;20041;-74
2021/06/23 10:09:32;;;;;;;9.70;3.03;;;16.20;88.40;;;;;;5117836;27;20548;-73
2021/06/23 10:12:07;;;;;;;9.38;2.97;;;16.30;87.30;;;;;;5102210;27;20043;-74
2021/06/23 10:14:40;;;;;;;10.32;3.17;;;16.30;87.90;;;;;;5114820;27;20566;-73
2021/06/23 10:17:08;;;;;;;9.90;2.90;;;16.40;87.30;;;;;;5118197;27;20043;-75
2021/06/23 10:19:38;;;;;;;10.93;3.15;;;16.30;87.00;;;;;;5100017;27;20347;-74
2021/06/23 10:22:08;;;;;;;8.38;2.92;;;16.20;87.30;;;;;;5103115;27;20446;-73
2021/06/23 10:24:35;;;;;;;10.43;3.10;;;16.10;87.50;;;;;;5092962;27;20042;-73
2021/06/23 10:27:07;;;;;;;15.43;3.03;;;16.00;87.50;;;;;;5120516;27;20035;-73
2021/06/23 10:29:35;;;;;;;6.45;2.70;;;16.00;88.80;;;;;;5095339;27;20405;-73
2021/06/23 10:32:05;;;;;;;11.93;2.92;;;15.90;88.70;;;;;;5102311;28;20036;-73
2021/06/23 10:34:31;;;;;;;7.45;2.92;;;16.00;88.20;;;;;;5097916;28;20031;-74
2021/06/23 10:37:00;;;;;;;7.88;3.03;;;16.10;88.90;;;;;;5078480;28;20050;-73
2021/06/23 10:39:35;;;;;;;9.13;2.63;;;16.20;88.70;;;;;;5117318;27;20039;-76
2021/06/23 10:42:04;;;;;;;8.30;2.55;;;16.30;85.40;;;;;;5100464;28;20042;-74
2021/06/23 10:44:37;;;;;;;8.38;2.72;;;16.20;85.70;;;;;;5099561;27;20171;-75
2021/06/23 10:47:08;;;;;;;6.90;2.47;;;16.20;86.60;;;;;;5119359;27;20031;-75
2021/06/23 10:49:50;;;;;;;6.82;2.67;;;16.20;86.20;;;;;;5095454;27;20599;-75
2021/06/23 10:52:22;;;;;;;8.50;2.70;;;16.20;85.90;;;;;;5101432;28;20043;-75
2021/06/23 10:54:56;;;;;;;7.43;2.88;;;16.20;85.60;;;;;;5098325;28;20071;-75
2021/06/23 10:57:29;;;;;;;10.02;2.70;;;16.30;85.40;;;;;;5122456;27;20047;-75
2021/06/23 11:00:31;;;;;;;10.52;3.08;;;16.40;84.60;;;;;;5089323;28;20047;-74
2021/06/23 11:03:03;;;;;;;8.40;2.70;;;16.40;83.90;;;;;;5080939;28;20085;-78
2021/06/23 11:05:38;;;;;;;10.07;2.47;;;16.40;84.70;;;;;;5080457;28;20040;-78
2021/06/23 11:08:24;;;;;;;8.57;3.35;;;16.50;85.30;;;;;;5084060;28;20032;-76
2021/06/23 11:10:50;;;;;;;9.50;4.13;;;16.70;85.40;;;;;;5080804;28;20036;-76
2021/06/23 11:13:25;;;;;;;7.78;3.03;;;16.70;85.30;;;;;;5076527;28;20123;-77
2021/06/23 11:15:53;;;;;;;9.40;2.90;;;16.70;84.40;;;;;;5077981;28;20043;-76
2021/06/23 11:18:32;;;;;;;11.48;3.65;;;16.70;84.50;;;;;;5084298;28;20044;-75
2021/06/23 11:21:08;;;;;;;6.22;2.80;;;16.80;82.80;;;;;;5071851;28;20044;-74
2021/06/23 11:23:42;;;;;;;6.13;2.53;;;16.90;85.20;;;;;;5084386;28;20035;-75
2021/06/23 11:26:29;;;;;;;8.32;2.60;;;17.00;85.80;;;;;;5076520;28;20040;-76
2021/06/23 11:28:55;;;;;;;6.20;2.67;;;17.20;84.80;;;;;;5068502;28;20528;-74
2021/06/23 11:31:46;;;;;;;10.15;2.97;;;17.40;84.70;;;;;;5072756;28;20752;-75
2021/06/23 11:34:35;;;;;;;6.80;2.40;;;17.50;82.90;;;;;;5073181;28;20263;-75
2021/06/23 11:37:01;;;;;;;5.05;2.40;;;17.40;82.00;;;;;;5076895;28;20040;-73
2021/06/23 11:39:26;;;;;;;8.05;2.70;;;17.40;81.90;;;;;;5050824;28;20219;-74
2021/06/23 11:41:53;;;;;;;8.73;2.63;;;17.40;81.90;;;;;;5082920;28;20605;-76
2021/06/23 11:44:19;;;;;;;8.85;3.00;;;17.50;79.30;;;;;;5086649;28;20482;-73
2021/06/23 11:46:48;;;;;;;8.05;2.55;;;17.50;81.00;;;;;;5073342;28;20043;-74
2021/06/23 11:49:14;;;;;;;7.45;2.35;;;17.50;81.00;;;;;;5080601;28;20055;-74
2021/06/23 11:51:42;;;;;;;7.45;2.65;;;17.60;81.60;;;;;;5058879;28;20600;-75
2021/06/23 11:54:10;;;;;;;7.90;2.10;;;17.50;79.50;;;;;;5061566;28;20048;-75
2021/06/23 11:56:36;;;;;;;7.07;2.17;;;17.40;79.40;;;;;;5078462;28;20044;-74
2021/06/23 11:59:02;;;;;;;10.00;2.38;;;17.30;80.00;;;;;;5079778;28;20085;-74
2021/06/23 12:01:28;;;;;;;7.30;2.63;;;17.30;80.40;;;;;;5100367;28;20031;-75
2021/06/23 12:03:56;;;;;;;9.07;2.55;;;17.40;80.60;;;;;;5099378;28;20031;-75
2021/06/23 12:06:22;;;;;;;8.98;2.63;;;17.50;77.80;;;;;;5101694;28;20543;-75
2021/06/23 12:08:48;;;;;;;7.00;2.33;;;17.60;78.30;;;;;;5052198;28;20150;-74
2021/06/23 12:11:13;;;;;;;8.88;2.45;;;17.70;77.80;;;;;;5102148;28;20055;-74
2021/06/23 12:13:39;;;;;;;8.07;2.40;;;17.80;78.00;;;;;;5095114;28;20032;-76
2021/06/23 12:16:05;;;;;;;7.63;2.00;;;17.90;75.40;;;;;;5098179;28;21170;-74
2021/06/23 12:18:32;;;;;;;6.53;2.40;;;17.90;77.70;;;;;;5096221;28;20040;-74
2021/06/23 12:20:58;;;;;;;8.15;2.58;;;18.00;79.00;;;;;;5078574;28;20410;-76
2021/06/23 12:23:24;;;;;;;9.50;2.35;;;18.00;78.80;;;;;;5081053;28;20096;-74
2021/06/23 12:25:50;;;;;;;5.68;2.35;;;18.10;78.20;;;;;;5099949;28;20044;-75
2021/06/23 12:28:17;;;;;;;8.25;2.72;;;18.10;79.30;;;;;;5083425;28;20031;-76
2021/06/23 12:30:48;;;;;;;7.50;2.90;;;18.20;78.30;;;;;;5099007;28;20123;-74
2021/06/23 12:33:15;;;;;;;8.20;2.78;;;18.30;79.00;;;;;;5101070;28;20032;-75
2021/06/23 12:35:43;;;;;;;6.90;2.45;;;18.30;76.90;;;;;;5103414;28;20151;-75
2021/06/23 12:38:14;;;;;;;11.75;2.67;;;18.00;77.20;;;;;;5097230;28;20039;-75
2021/06/23 12:40:41;;;;;;;7.85;2.60;;;18.00;77.80;;;;;;5097471;28;20046;-75
2021/06/23 12:43:17;;;;;;;8.35;2.45;;;17.90;79.00;;;;;;5095431;28;20044;-79
2021/06/23 12:45:48;;;;;;;6.13;2.38;;;17.90;80.60;;;;;;5097832;28;20039;-75
2021/06/23 12:48:14;;;;;;;7.97;2.63;;;17.90;79.30;;;;;;5095852;28;20043;-75
2021/06/23 12:50:40;;;;;;;8.02;2.67;;;17.80;77.50;;;;;;5098456;28;20043;-74
2021/06/23 12:53:09;;;;;;;11.45;2.90;;;17.80;77.80;;;;;;5104257;28;20053;-74
2021/06/23 12:55:35;;;;;;;6.00;2.38;;;17.60;77.30;;;;;;5091578;28;20075;-75
2021/06/23 12:58:03;;;;;;;8.85;2.65;;;17.50;79.00;;;;;;5087294;28;20141;-75
2021/06/23 13:00:29;;;;;;;6.93;2.72;;;17.50;79.00;;;;;;5086609;27;20058;-74
2021/06/23 13:02:55;;;;;;;8.45;2.80;;;17.60;78.20;;;;;;5084413;28;20039;-75
2021/06/23 13:05:21;;;;;;;8.73;3.03;;;17.60;77.30;;;;;;5083260;28;20399;-74
2021/06/23 13:07:47;;;;;;;8.68;2.75;;;17.70;78.00;;;;;;5072906;28;20039;-74